Time;durP1;ratioP1;P1;durP2;ratioP2;P2;SDS_P1;SDS_P2;PMS_P1;PMS_P2;Temp;Humidity;BMP_temperature;BMP_pressure;BME280_temperature;BME280_humidity;BME280_pressure;Samples;Min_cycle;Max_cycle;Signal;HPM_P1;HPM_P2
2022/07/03 00:01:51;;;;;;;17.90;15.63;;;17.70;77.10;;;;;;4976921;28;20517;-78
2022/07/03 00:04:19;;;;;;;17.80;15.85;;;17.70;77.10;;;;;;4977000;28;20038;-76
2022/07/03 00:06:45;;;;;;;15.65;14.02;;;17.70;76.80;;;;;;4976668;28;20077;-78
2022/07/03 00:09:12;;;;;;;15.60;14.00;;;17.70;76.60;;;;;;4976609;28;20144;-77
2022/07/03 00:11:37;;;;;;;11.98;10.10;;;17.70;76.30;;;;;;4976957;28;20048;-79
2022/07/03 00:14:03;;;;;;;7.57;6.88;;;17.70;76.00;;;;;;4976465;28;20054;-79
2022/07/03 00:16:30;;;;;;;8.57;6.57;;;17.70;75.80;;;;;;4960584;28;20138;-79
2022/07/03 00:18:56;;;;;;;7.07;6.40;;;17.70;75.20;;;;;;4960430;28;20046;-78
2022/07/03 00:21:34;;;;;;;6.78;6.15;;;17.60;75.20;;;;;;4976769;28;20046;-78
2022/07/03 00:24:20;;;;;;;8.13;6.75;;;17.60;75.30;;;;;;4960217;28;20077;-78
2022/07/03 00:26:52;;;;;;;7.15;6.20;;;17.60;75.70;;;;;;4960254;28;20046;-77
2022/07/03 00:29:21;;;;;;;9.57;6.28;;;17.50;76.00;;;;;;4976253;28;20050;-79
2022/07/03 00:31:47;;;;;;;8.68;6.82;;;17.50;76.30;;;;;;4976497;28;20046;-78
2022/07/03 00:34:15;;;;;;;6.72;6.10;;;17.40;76.40;;;;;;4960384;28;20065;-78
2022/07/03 00:36:41;;;;;;;8.77;6.57;;;17.30;76.70;;;;;;4976523;28;20395;-77
2022/07/03 00:39:07;;;;;;;7.30;6.45;;;17.20;76.90;;;;;;4976267;28;20125;-78
2022/07/03 00:41:35;;;;;;;8.00;7.15;;;17.20;76.80;;;;;;4976604;28;20130;-78
2022/07/03 00:44:02;;;;;;;9.98;6.63;;;17.20;76.70;;;;;;4980348;28;20073;-78
2022/07/03 00:46:28;;;;;;;8.07;7.32;;;17.20;76.80;;;;;;4983135;28;20125;-79
2022/07/03 00:48:56;;;;;;;8.98;7.05;;;17.10;76.90;;;;;;4982844;28;20129;-79
2022/07/03 00:51:24;;;;;;;7.95;7.15;;;17.10;77.00;;;;;;4966664;28;20042;-77
2022/07/03 00:53:56;;;;;;;9.30;8.18;;;17.00;77.10;;;;;;4967093;28;20125;-79
2022/07/03 00:56:31;;;;;;;7.35;6.63;;;17.00;77.30;;;;;;4983025;28;20042;-77
2022/07/03 00:59:00;;;;;;;8.35;7.20;;;17.00;77.40;;;;;;4982867;28;20038;-79
2022/07/03 01:01:32;;;;;;;10.98;7.30;;;16.90;77.50;;;;;;4983119;28;20042;-77
2022/07/03 01:04:13;;;;;;;9.45;7.53;;;16.90;77.80;;;;;;4982840;28;20117;-79
2022/07/03 01:07:02;;;;;;;8.48;7.60;;;16.80;77.90;;;;;;4966939;28;20038;-78
2022/07/03 01:09:44;;;;;;;7.93;6.60;;;16.80;78.00;;;;;;4975864;28;20050;-77
2022/07/03 01:12:29;;;;;;;8.23;7.50;;;16.70;78.30;;;;;;4982882;28;20467;-76
2022/07/03 01:15:06;;;;;;;12.73;8.68;;;16.80;78.30;;;;;;4982786;28;20521;-80
2022/07/03 01:17:36;;;;;;;9.25;8.20;;;16.70;78.40;;;;;;4982814;28;20054;-77
2022/07/03 01:20:04;;;;;;;9.68;8.07;;;16.70;78.40;;;;;;4982879;28;20078;-78
2022/07/03 01:22:34;;;;;;;12.18;8.45;;;16.70;78.50;;;;;;4966746;28;20076;-77
2022/07/03 01:25:15;;;;;;;9.77;8.18;;;16.70;78.60;;;;;;4982979;28;20073;-77
2022/07/03 01:28:09;;;;;;;8.77;7.88;;;16.60;79.00;;;;;;4982687;28;20096;-77
2022/07/03 01:30:47;;;;;;;9.05;7.85;;;16.60;79.10;;;;;;4966850;28;20438;-79
2022/07/03 01:33:17;;;;;;;8.18;7.38;;;16.50;79.10;;;;;;4982118;28;20130;-79
2022/07/03 01:35:54;;;;;;;8.65;7.75;;;16.50;79.30;;;;;;4982360;28;20050;-76
2022/07/03 01:38:21;;;;;;;11.18;7.93;;;16.50;79.60;;;;;;4982608;28;20080;-76
2022/07/03 01:40:49;;;;;;;11.48;9.63;;;16.40;79.50;;;;;;4982474;28;20121;-78
2022/07/03 01:43:15;;;;;;;10.52;9.18;;;16.50;79.40;;;;;;4982843;28;20069;-78
2022/07/03 01:45:47;;;;;;;10.60;9.68;;;16.40;79.50;;;;;;4982557;28;20042;-75
2022/07/03 01:48:14;;;;;;;10.95;9.85;;;16.40;79.50;;;;;;4982513;28;20042;-78
2022/07/03 01:50:41;;;;;;;10.65;9.57;;;16.40;79.60;;;;;;4982522;28;20042;-77
2022/07/03 01:53:12;;;;;;;10.27;9.02;;;16.40;79.70;;;;;;4966409;28;20046;-79
2022/07/03 01:55:41;;;;;;;10.98;9.45;;;16.30;79.70;;;;;;4979194;28;20042;-78
2022/07/03 01:58:08;;;;;;;9.07;8.18;;;16.40;79.70;;;;;;4979318;28;20103;-79
2022/07/03 02:01:08;;;;;;;9.13;8.23;;;16.30;79.80;;;;;;4979880;28;20153;-78
2022/07/03 02:03:39;;;;;;;11.35;8.98;;;16.30;80.40;;;;;;4971831;28;20046;-78
2022/07/03 02:06:06;;;;;;;16.17;10.07;;;16.30;80.40;;;;;;4978968;28;20076;-79
2022/07/03 02:08:57;;;;;;;12.15;10.38;;;16.30;80.40;;;;;;4979152;28;20042;-80
2022/07/03 02:11:28;;;;;;;13.38;10.77;;;16.20;80.50;;;;;;4979262;28;20469;-78
2022/07/03 02:14:19;;;;;;;17.45;12.30;;;16.10;80.40;;;;;;4978725;28;20054;-77
2022/07/03 02:16:54;;;;;;;18.80;12.73;;;16.00;81.00;;;;;;4978958;28;20046;-77
2022/07/03 02:19:27;;;;;;;18.88;11.43;;;15.80;81.40;;;;;;4979073;28;20049;-77
2022/07/03 02:21:56;;;;;;;10.77;9.63;;;15.80;81.60;;;;;;4979279;28;20052;-80
2022/07/03 02:24:27;;;;;;;13.10;9.68;;;15.90;82.00;;;;;;4962864;28;20034;-78
2022/07/03 02:26:56;;;;;;;12.88;11.63;;;15.80;82.00;;;;;;4978790;28;20100;-78
2022/07/03 02:29:33;;;;;;;14.80;11.30;;;15.80;81.90;;;;;;4978887;28;20039;-78
2022/07/03 02:32:04;;;;;;;12.45;10.13;;;15.80;81.70;;;;;;4978735;28;20045;-78
2022/07/03 02:34:31;;;;;;;10.57;9.52;;;15.60;81.70;;;;;;4978529;28;20034;-79
2022/07/03 02:37:17;;;;;;;9.25;8.45;;;15.60;82.00;;;;;;4978849;28;20426;-79
2022/07/03 02:40:07;;;;;;;10.98;9.82;;;15.60;82.40;;;;;;4978674;28;20096;-77
2022/07/03 02:43:19;;;;;;;10.68;9.60;;;15.50;82.40;;;;;;4978681;28;20518;-77
2022/07/03 02:45:56;;;;;;;11.80;10.70;;;15.60;82.60;;;;;;4978430;28;20503;-78
2022/07/03 02:48:33;;;;;;;10.00;8.95;;;15.50;82.40;;;;;;4978766;28;20085;-78
2022/07/03 02:51:09;;;;;;;10.05;9.05;;;15.50;82.50;;;;;;4978316;28;20054;-78
2022/07/03 02:53:44;;;;;;;10.02;9.13;;;15.60;82.50;;;;;;4978162;28;20399;-77
2022/07/03 02:56:31;;;;;;;10.60;9.40;;;15.60;82.60;;;;;;4977885;28;20042;-79
2022/07/03 02:58:59;;;;;;;10.90;9.77;;;15.70;82.90;;;;;;4962013;28;20081;-77
2022/07/03 03:01:47;;;;;;;10.43;9.32;;;15.70;83.00;;;;;;4978038;28;20053;-75
2022/07/03 03:04:27;;;;;;;10.20;9.30;;;15.70;83.60;;;;;;4958805;28;20050;-77
2022/07/03 03:07:14;;;;;;;9.82;8.90;;;15.80;83.10;;;;;;4978080;28;20043;-81
2022/07/03 03:09:48;;;;;;;9.52;8.52;;;15.80;83.40;;;;;;4978313;28;20360;-76
2022/07/03 03:12:14;;;;;;;10.20;7.70;;;15.90;83.30;;;;;;4978098;28;20046;-77
2022/07/03 03:14:42;;;;;;;8.88;7.85;;;15.90;83.30;;;;;;4977697;28;20067;-78
2022/07/03 03:17:11;;;;;;;7.82;7.13;;;15.90;83.10;;;;;;4977569;28;20161;-76
2022/07/03 03:19:43;;;;;;;9.85;8.32;;;16.00;83.10;;;;;;4977697;28;20042;-77
2022/07/03 03:22:40;;;;;;;9.63;8.77;;;16.00;82.90;;;;;;4978032;28;20128;-78
2022/07/03 03:25:05;;;;;;;9.88;9.00;;;16.00;83.40;;;;;;4978062;28;20100;-80
2022/07/03 03:27:31;;;;;;;10.35;9.43;;;16.00;84.20;;;;;;4961628;28;20045;-77
2022/07/03 03:29:58;;;;;;;9.10;8.20;;;16.00;84.50;;;;;;4977424;28;20042;-79
2022/07/03 03:32:26;;;;;;;11.30;8.80;;;16.00;84.20;;;;;;4977977;28;20049;-77
2022/07/03 03:34:51;;;;;;;10.43;9.35;;;16.00;83.90;;;;;;4961570;28;20046;-77
2022/07/03 03:37:17;;;;;;;9.55;8.65;;;16.00;84.00;;;;;;4977545;28;20415;-77
2022/07/03 03:39:43;;;;;;;10.15;9.35;;;16.00;84.10;;;;;;4961469;28;20124;-79
2022/07/03 03:42:09;;;;;;;10.15;9.15;;;16.00;83.60;;;;;;4978291;28;20039;-77
2022/07/03 03:44:35;;;;;;;12.05;10.32;;;16.00;83.70;;;;;;4977418;28;20046;-78
2022/07/03 03:47:01;;;;;;;11.38;9.82;;;16.00;83.60;;;;;;4977576;28;20047;-77
2022/07/03 03:49:28;;;;;;;14.38;10.52;;;16.00;84.60;;;;;;4977175;28;20125;-78
2022/07/03 03:51:54;;;;;;;11.32;9.95;;;16.00;84.50;;;;;;4960987;28;20050;-78
2022/07/03 03:54:19;;;;;;;13.65;9.93;;;16.00;84.00;;;;;;4993471;28;20042;-79
2022/07/03 03:56:45;;;;;;;11.32;10.27;;;16.00;84.40;;;;;;4977286;28;20053;-78
2022/07/03 03:59:11;;;;;;;13.15;11.82;;;16.00;84.60;;;;;;4976959;28;20104;-77
2022/07/03 04:01:36;;;;;;;13.63;12.23;;;16.00;85.00;;;;;;4944972;28;20039;-78
2022/07/03 04:04:02;;;;;;;14.60;13.20;;;16.00;85.30;;;;;;4976968;28;20042;-79
2022/07/03 04:06:28;;;;;;;14.15;12.90;;;16.10;84.60;;;;;;4977328;28;20117;-77
2022/07/03 04:08:53;;;;;;;12.60;11.48;;;16.00;85.80;;;;;;4977259;28;20457;-78
2022/07/03 04:11:19;;;;;;;12.68;11.52;;;16.00;85.50;;;;;;4993518;28;20042;-76
2022/07/03 04:13:45;;;;;;;10.20;9.18;;;16.00;85.60;;;;;;4977035;28;20188;-76
2022/07/03 04:16:11;;;;;;;10.13;9.15;;;16.00;85.20;;;;;;4977214;28;20053;-76
2022/07/03 04:18:37;;;;;;;11.52;10.25;;;16.10;86.20;;;;;;4976337;28;20112;-75
2022/07/03 04:21:03;;;;;;;11.30;10.20;;;16.10;86.10;;;;;;4977133;28;20479;-75
2022/07/03 04:23:29;;;;;;;14.05;10.95;;;16.10;85.10;;;;;;4960691;28;20410;-74
2022/07/03 04:25:55;;;;;;;12.10;10.35;;;16.10;85.00;;;;;;4976751;28;20035;-74
2022/07/03 04:28:21;;;;;;;11.98;10.73;;;16.10;85.20;;;;;;4976627;28;20461;-75
2022/07/03 04:30:47;;;;;;;10.98;9.68;;;16.20;84.90;;;;;;4993013;28;20050;-76
2022/07/03 04:33:13;;;;;;;13.93;11.43;;;16.20;84.70;;;;;;4976634;28;20048;-75
2022/07/03 04:35:39;;;;;;;10.70;9.68;;;16.30;84.50;;;;;;4976882;28;20121;-76
2022/07/03 04:38:05;;;;;;;12.23;10.75;;;16.30;84.40;;;;;;4960826;28;20039;-76
2022/07/03 04:40:30;;;;;;;11.50;10.48;;;16.30;84.60;;;;;;4976869;28;20490;-74
2022/07/03 04:42:56;;;;;;;11.75;10.60;;;16.40;84.30;;;;;;4944758;28;20104;-76
2022/07/03 04:45:22;;;;;;;11.70;10.60;;;16.40;84.10;;;;;;4993016;28;20038;-73
2022/07/03 04:47:47;;;;;;;10.63;9.63;;;16.40;84.00;;;;;;4976679;28;20038;-77
2022/07/03 04:50:13;;;;;;;10.02;9.13;;;16.40;84.00;;;;;;4960272;28;20306;-78
2022/07/03 04:52:39;;;;;;;11.07;8.52;;;16.40;83.80;;;;;;4960242;28;20062;-78
2022/07/03 04:55:06;;;;;;;9.45;8.32;;;16.40;83.70;;;;;;4976394;28;20379;-77
2022/07/03 04:57:31;;;;;;;9.85;8.85;;;16.40;83.60;;;;;;4976453;28;20513;-78
2022/07/03 04:59:57;;;;;;;9.10;7.93;;;16.50;83.50;;;;;;4960568;28;20131;-77
2022/07/03 05:02:23;;;;;;;10.90;8.38;;;16.50;83.40;;;;;;4976692;28;20390;-78
2022/07/03 05:04:48;;;;;;;8.10;7.13;;;16.50;83.40;;;;;;4976300;28;20039;-77
2022/07/03 05:07:14;;;;;;;7.55;6.72;;;16.60;83.30;;;;;;4976800;28;20061;-78
2022/07/03 05:09:40;;;;;;;9.15;7.10;;;16.70;83.10;;;;;;4976318;28;20085;-77
2022/07/03 05:12:06;;;;;;;7.72;6.63;;;16.80;83.00;;;;;;4976351;28;20051;-76
2022/07/03 05:14:32;;;;;;;6.47;5.88;;;16.80;82.90;;;;;;4976068;28;20061;-77
2022/07/03 05:16:57;;;;;;;8.15;6.65;;;16.80;82.60;;;;;;4960070;28;20046;-78
2022/07/03 05:19:23;;;;;;;8.27;6.30;;;16.90;82.60;;;;;;4976279;28;20038;-77
2022/07/03 05:21:49;;;;;;;7.00;6.07;;;16.80;82.80;;;;;;4976342;28;20038;-77
2022/07/03 05:24:14;;;;;;;6.05;5.55;;;16.90;82.40;;;;;;4976267;28;20042;-76
2022/07/03 05:26:40;;;;;;;6.65;4.70;;;16.90;81.90;;;;;;4960122;28;20090;-78
2022/07/03 05:29:05;;;;;;;6.68;5.97;;;16.90;81.80;;;;;;4960768;28;20038;-77
2022/07/03 05:31:31;;;;;;;6.90;5.05;;;17.00;81.70;;;;;;4963865;28;20398;-77
2022/07/03 05:33:57;;;;;;;6.07;5.53;;;17.00;81.60;;;;;;4979867;28;20049;-78
2022/07/03 05:36:22;;;;;;;7.45;5.43;;;17.00;81.60;;;;;;4979983;28;20049;-78
2022/07/03 05:41:32;;;;;;;5.35;4.80;;;17.10;81.50;;;;;;4980201;28;20054;-78
2022/07/03 05:43:58;;;;;;;6.10;4.55;;;17.10;81.30;;;;;;4963843;28;20529;-79
2022/07/03 05:46:24;;;;;;;4.90;3.65;;;17.20;81.50;;;;;;4980265;28;20038;-78
2022/07/03 05:48:49;;;;;;;6.63;4.28;;;17.10;81.40;;;;;;4963642;28;20521;-78
2022/07/03 05:51:15;;;;;;;5.45;4.05;;;17.20;80.90;;;;;;4979377;28;20039;-77
2022/07/03 05:53:41;;;;;;;5.90;3.70;;;17.40;80.60;;;;;;4979499;28;20046;-78
2022/07/03 05:56:06;;;;;;;5.22;4.35;;;17.50;79.80;;;;;;4979563;28;20113;-78
2022/07/03 05:58:32;;;;;;;7.53;4.07;;;17.50;80.40;;;;;;4947303;28;20034;-79
2022/07/03 06:00:58;;;;;;;3.90;3.53;;;17.60;80.00;;;;;;4963452;28;20065;-77
2022/07/03 06:03:24;;;;;;;4.65;3.55;;;17.70;80.00;;;;;;4963126;28;20089;-78
2022/07/03 06:05:49;;;;;;;5.93;3.30;;;17.80;79.90;;;;;;4979265;28;20038;-78
2022/07/03 06:08:15;;;;;;;6.28;3.22;;;17.90;79.80;;;;;;4979391;28;20050;-79
2022/07/03 06:10:40;;;;;;;5.63;3.83;;;18.00;79.50;;;;;;4963567;28;20054;-79
2022/07/03 06:13:06;;;;;;;3.67;2.45;;;18.10;79.10;;;;;;4978963;28;20495;-78
2022/07/03 06:15:32;;;;;;;4.70;2.90;;;18.20;78.20;;;;;;4963320;28;20403;-78
2022/07/03 06:17:58;;;;;;;3.10;2.67;;;18.40;77.30;;;;;;4978947;28;20089;-78
2022/07/03 06:20:24;;;;;;;4.53;2.72;;;18.50;77.00;;;;;;4963461;28;20038;-79
2022/07/03 06:22:49;;;;;;;4.75;2.83;;;18.50;77.30;;;;;;4978682;28;20415;-77
2022/07/03 06:25:15;;;;;;;4.75;2.30;;;18.50;77.50;;;;;;4962790;28;20129;-78
2022/07/03 06:27:42;;;;;;;3.65;2.33;;;18.60;77.60;;;;;;4962828;28;20046;-78
2022/07/03 06:30:08;;;;;;;3.28;2.10;;;18.70;77.70;;;;;;4978778;28;20097;-79
2022/07/03 06:32:34;;;;;;;4.35;2.08;;;18.80;77.50;;;;;;4962968;28;20104;-79
2022/07/03 06:35:00;;;;;;;2.95;1.65;;;18.90;76.20;;;;;;4978535;28;20603;-77
2022/07/03 06:37:25;;;;;;;4.22;2.10;;;18.90;75.30;;;;;;4978559;28;20068;-76
2022/07/03 06:39:51;;;;;;;7.35;1.98;;;18.90;75.60;;;;;;4962755;28;20391;-80
2022/07/03 06:42:17;;;;;;;6.05;2.13;;;18.90;75.80;;;;;;4961717;28;20038;-77
2022/07/03 06:44:44;;;;;;;4.88;2.10;;;19.00;75.90;;;;;;4962252;28;20092;-80
2022/07/03 06:47:10;;;;;;;2.60;1.95;;;19.10;75.60;;;;;;4978690;28;20078;-79
2022/07/03 06:49:36;;;;;;;5.82;1.95;;;19.20;76.60;;;;;;4962390;28;20080;-76
2022/07/03 06:52:02;;;;;;;4.35;2.00;;;19.20;76.30;;;;;;4978268;28;20042;-75
2022/07/03 06:54:27;;;;;;;5.38;1.80;;;19.30;76.10;;;;;;4962339;28;20053;-77
2022/07/03 06:56:53;;;;;;;2.75;1.80;;;19.20;75.60;;;;;;4978149;28;20131;-76
2022/07/03 06:59:19;;;;;;;5.70;1.80;;;19.20;75.20;;;;;;4978261;28;20044;-76
2022/07/03 07:01:45;;;;;;;3.70;1.77;;;19.20;75.70;;;;;;4978098;28;20126;-77
2022/07/03 07:04:11;;;;;;;5.15;1.50;;;19.30;75.80;;;;;;4961960;28;20050;-78
2022/07/03 07:06:37;;;;;;;3.55;1.60;;;19.40;75.50;;;;;;4962216;28;20052;-79
2022/07/03 07:09:04;;;;;;;3.83;1.73;;;19.50;75.40;;;;;;4978418;28;20077;-79
2022/07/03 07:11:29;;;;;;;2.55;1.40;;;19.60;75.60;;;;;;4945895;28;20045;-78
2022/07/03 07:13:55;;;;;;;3.28;1.55;;;19.70;75.50;;;;;;4978001;28;20143;-79
2022/07/03 07:16:21;;;;;;;5.95;1.85;;;19.70;74.60;;;;;;4978075;28;20541;-79
2022/07/03 07:18:47;;;;;;;4.43;1.30;;;19.80;74.70;;;;;;4961561;28;20081;-77
2022/07/03 07:21:12;;;;;;;2.83;1.27;;;19.90;74.30;;;;;;4961683;28;20054;-79
2022/07/03 07:23:38;;;;;;;2.75;1.10;;;19.90;72.40;;;;;;4961263;28;20517;-80
2022/07/03 07:26:04;;;;;;;1.95;1.10;;;19.90;69.20;;;;;;4961244;28;20046;-78
2022/07/03 07:28:33;;;;;;;3.17;1.10;;;20.00;71.20;;;;;;4977624;28;20045;-78
2022/07/03 07:31:02;;;;;;;3.47;1.25;;;20.00;70.70;;;;;;4961400;28;20069;-80
2022/07/03 07:33:27;;;;;;;3.28;1.17;;;20.10;69.90;;;;;;4977237;28;20104;-77
2022/07/03 07:35:53;;;;;;;3.38;0.98;;;20.20;69.00;;;;;;4961096;28;20125;-79
2022/07/03 07:38:19;;;;;;;5.10;1.30;;;20.30;68.40;;;;;;4976945;28;20051;-78
2022/07/03 07:40:44;;;;;;;2.55;1.00;;;20.40;68.60;;;;;;4961253;28;20045;-79
2022/07/03 07:43:10;;;;;;;2.45;1.08;;;20.40;68.20;;;;;;4977109;28;20502;-78
2022/07/03 07:45:36;;;;;;;2.88;0.95;;;20.60;67.70;;;;;;4977026;28;20045;-79
2022/07/03 07:48:02;;;;;;;1.95;0.90;;;20.70;65.40;;;;;;4977046;28;20133;-77
2022/07/03 07:50:28;;;;;;;4.85;1.20;;;20.70;65.10;;;;;;4976971;28;20050;-79
2022/07/03 07:52:54;;;;;;;3.25;1.20;;;20.70;65.60;;;;;;4960221;28;20038;-78
2022/07/03 07:55:20;;;;;;;3.58;1.38;;;20.80;65.10;;;;;;4977161;28;20398;-77
2022/07/03 07:57:46;;;;;;;5.65;1.40;;;20.90;64.40;;;;;;4960600;28;20038;-78
2022/07/03 08:00:15;;;;;;;4.20;1.50;;;20.90;64.20;;;;;;4976685;28;20088;-80
2022/07/03 08:05:35;;;;;;;3.83;1.52;;;21.00;65.20;;;;;;4976619;28;20042;-78
2022/07/03 08:08:08;;;;;;;2.28;0.77;;;21.10;64.50;;;;;;4976640;28;20062;-78
2022/07/03 08:10:48;;;;;;;2.97;1.48;;;21.20;64.60;;;;;;4960513;28;20073;-79
2022/07/03 08:13:15;;;;;;;3.00;1.73;;;21.30;64.30;;;;;;4973305;28;20051;-78
2022/07/03 08:15:41;;;;;;;2.97;0.98;;;21.40;64.10;;;;;;4973293;28;20055;-80
2022/07/03 08:18:07;;;;;;;3.72;1.30;;;21.50;63.80;;;;;;4973080;28;20055;-79
2022/07/03 08:20:34;;;;;;;5.22;1.05;;;21.50;63.90;;;;;;4973129;28;20067;-78
2022/07/03 08:23:00;;;;;;;8.35;1.38;;;21.50;64.60;;;;;;4973350;28;20392;-78
2022/07/03 08:25:26;;;;;;;3.80;1.15;;;21.50;63.20;;;;;;4973146;28;20035;-77
2022/07/03 08:27:52;;;;;;;1.98;1.10;;;21.60;63.70;;;;;;4941144;28;20054;-79
2022/07/03 08:30:18;;;;;;;3.40;1.27;;;21.50;63.70;;;;;;4973051;28;20105;-78
2022/07/03 08:32:45;;;;;;;5.30;1.70;;;21.70;63.70;;;;;;4957121;28;20053;-79
2022/07/03 08:35:11;;;;;;;3.67;1.17;;;21.70;60.80;;;;;;4989103;28;20133;-79
2022/07/03 08:37:40;;;;;;;6.18;1.15;;;21.80;61.00;;;;;;4989150;28;20120;-79
2022/07/03 08:40:10;;;;;;;5.18;1.42;;;21.80;61.80;;;;;;4973189;28;20043;-77
2022/07/03 08:42:41;;;;;;;4.03;1.27;;;22.00;62.30;;;;;;4989147;28;20050;-78
2022/07/03 08:45:08;;;;;;;2.17;0.90;;;22.00;61.80;;;;;;4972992;28;20043;-79
2022/07/03 08:47:36;;;;;;;6.57;1.30;;;21.90;61.30;;;;;;4989279;28;20398;-78
2022/07/03 08:50:02;;;;;;;4.93;1.52;;;21.90;62.10;;;;;;4972862;28;20090;-78
2022/07/03 08:52:28;;;;;;;6.35;1.63;;;22.00;61.60;;;;;;4972985;28;20491;-80
2022/07/03 08:54:54;;;;;;;4.20;1.75;;;22.00;62.60;;;;;;4973046;28;20047;-79
2022/07/03 08:57:21;;;;;;;6.55;1.85;;;22.00;63.80;;;;;;4972716;28;20105;-78
2022/07/03 08:59:52;;;;;;;4.53;1.88;;;22.20;65.10;;;;;;4956572;28;20039;-79
2022/07/03 09:02:18;;;;;;;4.75;1.42;;;22.20;65.60;;;;;;4972700;28;20046;-78
2022/07/03 09:04:45;;;;;;;3.88;1.20;;;22.30;64.60;;;;;;4974343;28;20039;-78
2022/07/03 09:07:12;;;;;;;7.28;1.45;;;22.40;63.20;;;;;;4976803;28;20399;-79
2022/07/03 09:09:39;;;;;;;5.20;1.40;;;22.40;62.00;;;;;;4976464;28;20560;-78
2022/07/03 09:12:06;;;;;;;4.80;1.70;;;22.40;61.80;;;;;;4993104;28;20049;-78
2022/07/03 09:14:32;;;;;;;4.30;1.70;;;22.50;61.90;;;;;;4987967;28;20066;-79
2022/07/03 09:16:58;;;;;;;7.28;1.92;;;22.50;63.00;;;;;;4960164;28;20130;-80
2022/07/03 09:19:47;;;;;;;4.82;2.40;;;22.40;63.80;;;;;;4976591;28;20133;-77
2022/07/03 09:22:27;;;;;;;9.32;2.60;;;22.60;62.80;;;;;;4976380;28;20039;-79
2022/07/03 09:24:54;;;;;;;6.22;1.63;;;22.70;63.40;;;;;;4976366;28;20078;-78
2022/07/03 09:27:23;;;;;;;4.20;1.83;;;22.70;63.80;;;;;;4976184;28;20046;-78
2022/07/03 09:30:01;;;;;;;4.10;1.73;;;22.80;62.90;;;;;;4992431;28;20043;-80
2022/07/03 09:32:51;;;;;;;6.30;2.42;;;22.80;60.60;;;;;;4976243;28;20038;-78
2022/07/03 09:35:23;;;;;;;4.85;1.70;;;22.70;61.30;;;;;;4975675;28;20050;-79
2022/07/03 09:37:57;;;;;;;6.03;1.35;;;22.80;61.30;;;;;;4959902;28;20125;-78
2022/07/03 09:40:25;;;;;;;8.13;1.95;;;22.60;59.90;;;;;;4959876;28;20046;-81
2022/07/03 09:43:04;;;;;;;5.82;2.15;;;22.70;59.70;;;;;;4975959;28;20540;-80
2022/07/03 09:45:49;;;;;;;7.85;2.15;;;22.50;61.10;;;;;;4976239;28;20369;-80
2022/07/03 09:48:40;;;;;;;5.65;2.63;;;22.40;64.10;;;;;;4959683;28;20042;-80
2022/07/03 09:51:25;;;;;;;4.70;1.67;;;22.10;65.00;;;;;;4975955;28;20562;-79
2022/07/03 09:53:59;;;;;;;3.88;1.67;;;21.90;64.70;;;;;;4975917;28;20086;-78
2022/07/03 09:56:38;;;;;;;5.93;2.03;;;21.70;65.70;;;;;;4976280;28;20057;-79
2022/07/03 09:59:15;;;;;;;4.90;1.88;;;21.50;66.60;;;;;;4975623;28;20407;-78
2022/07/03 10:01:46;;;;;;;4.38;2.05;;;21.40;67.20;;;;;;4975657;28;20126;-80
2022/07/03 10:04:22;;;;;;;9.73;2.30;;;21.40;69.00;;;;;;4975808;28;20074;-79
2022/07/03 10:07:06;;;;;;;6.47;2.40;;;21.50;69.70;;;;;;4975778;28;20387;-77
2022/07/03 10:09:33;;;;;;;9.15;2.83;;;21.90;69.30;;;;;;4975465;28;20050;-79
2022/07/03 10:12:03;;;;;;;8.15;2.63;;;21.90;67.50;;;;;;4975474;28;20082;-80
2022/07/03 10:14:32;;;;;;;7.95;2.83;;;21.80;67.60;;;;;;4975360;28;20138;-80
2022/07/03 10:17:01;;;;;;;7.88;2.50;;;21.70;69.20;;;;;;4958191;28;20086;-79
2022/07/03 10:19:36;;;;;;;5.00;2.33;;;21.50;69.60;;;;;;4975434;28;20062;-77
2022/07/03 10:22:09;;;;;;;6.32;2.30;;;21.50;69.70;;;;;;4959188;28;20035;-81
2022/07/03 10:24:36;;;;;;;5.90;2.00;;;21.40;69.70;;;;;;4975244;28;20039;-79
2022/07/03 10:27:02;;;;;;;8.20;2.30;;;21.40;68.80;;;;;;4975453;28;20399;-81
2022/07/03 10:29:28;;;;;;;6.40;2.40;;;21.50;67.90;;;;;;4975093;28;20528;-80
2022/07/03 10:31:55;;;;;;;6.20;2.30;;;21.50;68.20;;;;;;4943406;28;20038;-77
2022/07/03 10:34:25;;;;;;;6.60;2.50;;;21.50;68.30;;;;;;4975048;28;20035;-77
2022/07/03 10:36:58;;;;;;;3.65;1.67;;;21.40;68.50;;;;;;4927324;28;20043;-80
2022/07/03 10:39:49;;;;;;;4.65;1.65;;;21.30;68.30;;;;;;4991400;28;20372;-80
2022/07/03 10:45:14;;;;;;;3.80;2.03;;;21.90;67.00;;;;;;4974812;28;20418;-79
2022/07/03 10:47:48;;;;;;;6.47;2.03;;;22.30;64.30;;;;;;4974838;28;20046;-78
2022/07/03 10:50:23;;;;;;;3.55;1.65;;;22.70;64.20;;;;;;4958705;28;20093;-80
2022/07/03 10:52:50;;;;;;;3.67;1.63;;;22.90;64.40;;;;;;4958779;28;20046;-81
2022/07/03 10:55:17;;;;;;;3.55;1.40;;;22.70;62.60;;;;;;4974694;28;20046;-78
2022/07/03 10:58:03;;;;;;;3.00;1.55;;;22.80;62.10;;;;;;4958583;28;20125;-78
2022/07/03 11:00:29;;;;;;;3.97;1.33;;;22.80;61.20;;;;;;4974647;28;20407;-80
2022/07/03 11:02:55;;;;;;;3.38;1.73;;;22.80;60.00;;;;;;4958660;28;20050;-81
2022/07/03 11:05:26;;;;;;;3.78;1.35;;;22.90;59.60;;;;;;4958455;28;20042;-80
2022/07/03 11:07:52;;;;;;;2.05;1.42;;;22.90;59.90;;;;;;4974485;28;20411;-78
2022/07/03 11:10:18;;;;;;;4.47;2.65;;;23.00;60.70;;;;;;4974647;28;20454;-78
2022/07/03 11:13:16;;;;;;;3.92;1.30;;;23.00;60.90;;;;;;4974715;28;20173;-79
2022/07/03 11:15:53;;;;;;;4.97;2.10;;;23.00;61.20;;;;;;4977435;28;20129;-79
2022/07/03 11:18:29;;;;;;;4.78;1.60;;;23.00;61.20;;;;;;4977328;28;20082;-78
2022/07/03 11:21:07;;;;;;;4.30;1.20;;;23.30;61.20;;;;;;4977419;28;20046;-78
2022/07/03 11:23:48;;;;;;;5.50;1.92;;;23.50;60.10;;;;;;4977395;28;20042;-78
2022/07/03 11:26:13;;;;;;;3.50;1.77;;;23.40;59.30;;;;;;4977419;28;20491;-80
2022/07/03 11:28:39;;;;;;;2.33;1.33;;;23.30;59.70;;;;;;4977061;28;20049;-77
2022/07/03 11:31:13;;;;;;;3.78;1.38;;;23.20;59.50;;;;;;4977278;28;20046;-80
2022/07/03 11:33:42;;;;;;;2.35;1.42;;;23.20;59.40;;;;;;4977244;28;20383;-79
2022/07/03 11:36:22;;;;;;;2.83;1.20;;;23.30;59.60;;;;;;4961251;28;20052;-78
2022/07/03 11:38:55;;;;;;;3.65;1.20;;;23.50;58.20;;;;;;4976952;28;20038;-79
2022/07/03 11:41:22;;;;;;;2.97;1.08;;;23.60;57.60;;;;;;4977191;28;20077;-78
2022/07/03 11:44:01;;;;;;;3.45;1.20;;;23.60;58.20;;;;;;4977001;28;20042;-79
2022/07/03 11:46:29;;;;;;;2.78;1.20;;;23.40;59.10;;;;;;4977247;28;20038;-78
2022/07/03 11:49:12;;;;;;;5.55;1.85;;;23.40;58.70;;;;;;4976812;28;20046;-79
2022/07/03 11:51:39;;;;;;;3.00;1.40;;;23.50;59.60;;;;;;4976909;28;20038;-80
2022/07/03 11:54:05;;;;;;;3.05;1.30;;;23.50;58.60;;;;;;4976704;28;20487;-80
2022/07/03 11:56:32;;;;;;;4.07;1.58;;;23.70;58.10;;;;;;4993082;28;20073;-79
2022/07/03 11:59:00;;;;;;;1.75;1.02;;;23.70;57.60;;;;;;4960480;28;20046;-78
2022/07/03 12:01:25;;;;;;;3.88;1.42;;;23.70;58.40;;;;;;4976709;28;20044;-79
2022/07/03 12:04:02;;;;;;;1.88;1.13;;;23.60;57.00;;;;;;4960869;28;20121;-78
2022/07/03 12:06:34;;;;;;;3.30;1.50;;;23.20;57.60;;;;;;4976703;28;20104;-78
2022/07/03 12:09:00;;;;;;;3.15;1.35;;;23.40;58.50;;;;;;4960862;28;20034;-81
2022/07/03 12:11:25;;;;;;;4.32;1.17;;;23.60;58.80;;;;;;4976681;28;20450;-77
2022/07/03 12:13:52;;;;;;;3.20;1.10;;;23.90;56.70;;;;;;4960105;28;20066;-77
2022/07/03 12:16:18;;;;;;;3.17;1.23;;;24.00;56.10;;;;;;4992926;28;20471;-78
2022/07/03 12:18:54;;;;;;;3.75;1.10;;;24.10;55.60;;;;;;4976539;28;20074;-78
2022/07/03 12:21:22;;;;;;;3.30;1.58;;;24.30;54.80;;;;;;4976892;28;20367;-79
2022/07/03 12:23:53;;;;;;;2.00;1.38;;;24.40;55.00;;;;;;4976431;28;20121;-80
2022/07/03 12:26:32;;;;;;;2.40;1.27;;;24.40;55.70;;;;;;4976324;28;20041;-79
2022/07/03 12:28:59;;;;;;;2.63;1.20;;;24.30;55.60;;;;;;4976234;28;20042;-79
2022/07/03 12:31:26;;;;;;;5.72;1.63;;;23.90;57.10;;;;;;4976253;28;20042;-79
2022/07/03 12:33:52;;;;;;;3.15;1.70;;;23.50;59.70;;;;;;4976254;28;20042;-78
2022/07/03 12:36:19;;;;;;;3.97;1.63;;;23.20;61.20;;;;;;4976246;28;20074;-76
2022/07/03 12:38:48;;;;;;;4.15;1.90;;;23.10;62.20;;;;;;4943545;28;20069;-78
2022/07/03 12:41:15;;;;;;;2.45;1.50;;;23.30;62.40;;;;;;4944314;28;20034;-75
2022/07/03 12:43:45;;;;;;;2.58;1.15;;;23.30;61.60;;;;;;4961098;28;20055;-75
2022/07/03 12:46:21;;;;;;;6.38;1.50;;;23.40;60.70;;;;;;4976523;28;20441;-76
2022/07/03 12:48:52;;;;;;;2.10;1.35;;;23.50;60.10;;;;;;4976225;28;20073;-78
2022/07/03 12:51:46;;;;;;;2.22;1.20;;;23.50;60.10;;;;;;4992297;28;20042;-77
2022/07/03 12:54:22;;;;;;;1.67;0.98;;;23.50;58.80;;;;;;4960023;28;20049;-78
2022/07/03 13:00:16;;;;;;;2.20;0.80;;;23.40;58.00;;;;;;4975845;28;20057;-76
2022/07/03 13:02:43;;;;;;;3.83;1.10;;;23.20;58.00;;;;;;4976025;28;20070;-76
2022/07/03 13:05:19;;;;;;;2.22;1.10;;;23.10;59.30;;;;;;4975954;28;20057;-78
2022/07/03 13:07:47;;;;;;;2.65;1.30;;;23.00;60.20;;;;;;4975985;28;20052;-76
2022/07/03 13:10:18;;;;;;;3.20;1.10;;;22.90;60.50;;;;;;4975796;28;20101;-79